createdAt,value
2018-08-22T00:00:42.116Z,6.00
2018-08-22T00:03:10.472Z,6.62
2018-08-22T00:05:38.780Z,6.80
2018-08-22T00:08:07.136Z,6.55
2018-08-22T00:10:35.455Z,6.37
2018-08-22T00:13:03.812Z,6.20
2018-08-22T00:15:32.124Z,5.70
2018-08-22T00:18:00.468Z,5.87
2018-08-22T00:20:28.791Z,6.58
2018-08-22T00:22:57.151Z,6.30
2018-08-22T00:25:25.546Z,5.60
2018-08-22T00:27:53.891Z,6.67
2018-08-22T00:30:22.231Z,7.10
2018-08-22T00:32:50.584Z,5.70
2018-08-22T00:35:18.931Z,5.65
2018-08-22T00:37:47.287Z,5.58
2018-08-22T00:40:15.620Z,5.97
2018-08-22T00:42:43.974Z,5.87
2018-08-22T00:45:12.293Z,6.50
2018-08-22T00:47:40.656Z,5.33
2018-08-22T00:50:08.968Z,6.70
2018-08-22T00:52:37.291Z,7.03
2018-08-22T00:55:05.648Z,6.70
2018-08-22T00:57:33.966Z,7.35
2018-08-22T01:00:02.372Z,7.05
2018-08-22T01:02:30.695Z,5.75
2018-08-22T01:04:59.044Z,6.75
2018-08-22T01:07:27.372Z,6.05
2018-08-22T01:09:55.732Z,6.80
2018-08-22T01:12:24.044Z,6.28
2018-08-22T01:14:52.391Z,7.45
2018-08-22T01:17:20.695Z,6.22
2018-08-22T01:19:49.136Z,6.67
2018-08-22T01:22:17.444Z,6.72
2018-08-22T01:24:45.895Z,6.97
2018-08-22T01:27:19.568Z,6.92
2018-08-22T01:29:47.921Z,5.47
2018-08-22T01:32:16.237Z,7.47
2018-08-22T01:34:44.588Z,8.40
2018-08-22T01:37:12.897Z,7.22
2018-08-22T01:39:41.232Z,7.45
2018-08-22T01:42:09.535Z,6.83
2018-08-22T01:44:37.875Z,8.10
2018-08-22T01:47:06.204Z,7.05
2018-08-22T01:49:34.548Z,7.65
2018-08-22T01:52:03.164Z,8.28
2018-08-22T01:54:31.524Z,7.33
2018-08-22T01:56:59.876Z,7.30
2018-08-22T01:59:28.236Z,6.67
2018-08-22T02:01:56.565Z,7.03
2018-08-22T02:04:24.929Z,6.58
2018-08-22T02:06:53.236Z,6.55
2018-08-22T02:09:21.579Z,6.00
2018-08-22T02:11:49.886Z,7.80
2018-08-22T02:14:18.240Z,7.55
2018-08-22T02:16:46.589Z,5.90
2018-08-22T02:19:14.939Z,6.80
2018-08-22T02:21:43.255Z,7.12
2018-08-22T02:24:11.588Z,6.85
2018-08-22T02:26:39.933Z,6.33
2018-08-22T02:29:08.280Z,7.37
2018-08-22T02:31:36.605Z,7.25
2018-08-22T02:34:04.958Z,6.72
2018-08-22T02:36:33.372Z,7.78
2018-08-22T02:39:01.680Z,6.62
2018-08-22T02:41:30.027Z,7.40
2018-08-22T02:43:58.336Z,7.35
2018-08-22T02:46:26.678Z,6.67
2018-08-22T02:48:56.107Z,7.50
2018-08-22T02:51:24.919Z,6.85
2018-08-22T02:53:53.236Z,7.15
2018-08-22T02:56:22.099Z,6.28
2018-08-22T02:58:50.547Z,7.25
2018-08-22T03:01:19.060Z,7.40
2018-08-22T03:03:47.373Z,6.58
2018-08-22T03:06:15.725Z,7.22
2018-08-22T03:08:44.055Z,7.37
2018-08-22T03:11:12.488Z,8.58
2018-08-22T03:13:40.808Z,6.65
2018-08-22T03:16:09.143Z,6.65
2018-08-22T03:18:37.485Z,8.05
2018-08-22T03:21:05.834Z,6.95
2018-08-22T03:23:34.139Z,6.87
2018-08-22T03:26:02.563Z,8.28
2018-08-22T03:28:30.877Z,7.40
2018-08-22T03:30:59.213Z,6.80
2018-08-22T03:33:27.541Z,7.90
2018-08-22T03:35:55.879Z,7.75
2018-08-22T03:38:24.178Z,7.92
2018-08-22T03:40:52.523Z,7.17
2018-08-22T03:43:21.084Z,7.08
2018-08-22T03:45:49.424Z,8.03
2018-08-22T03:48:18.055Z,7.00
2018-08-22T03:50:46.391Z,7.47
2018-08-22T03:53:14.704Z,6.75
2018-08-22T03:55:43.043Z,7.28
2018-08-22T03:58:11.804Z,6.75
2018-08-22T04:00:40.180Z,7.75
2018-08-22T04:03:08.500Z,6.85
2018-08-22T04:05:36.844Z,7.67
2018-08-22T04:08:05.192Z,7.87
2018-08-22T04:10:33.540Z,6.90
2018-08-22T04:13:01.853Z,7.42
2018-08-22T04:15:30.204Z,7.17
2018-08-22T04:17:58.513Z,7.55
2018-08-22T04:20:26.852Z,7.17
2018-08-22T04:22:55.165Z,8.20
2018-08-22T04:25:23.545Z,7.28
2018-08-22T04:27:51.893Z,7.80
2018-08-22T04:30:20.259Z,7.70
2018-08-22T04:32:48.578Z,7.92
2018-08-22T04:35:16.887Z,7.35
2018-08-22T04:37:45.236Z,8.53
2018-08-22T04:40:13.549Z,7.67
2018-08-22T04:42:41.887Z,6.90
2018-08-22T04:45:10.207Z,6.90
2018-08-22T04:47:38.610Z,6.78
2018-08-22T04:50:06.958Z,7.03
2018-08-22T04:52:35.296Z,7.37
2018-08-22T04:55:03.653Z,8.23
2018-08-22T04:57:31.991Z,7.15
2018-08-22T05:00:00.317Z,8.00
2018-08-22T05:02:28.657Z,7.55
2018-08-22T05:04:57.133Z,7.60
2018-08-22T05:07:25.493Z,8.00
2018-08-22T05:09:53.796Z,7.20
2018-08-22T05:12:22.151Z,7.35
2018-08-22T05:14:50.464Z,6.95
2018-08-22T05:17:18.815Z,6.30
2018-08-22T05:19:47.119Z,7.10
2018-08-22T05:22:15.483Z,7.25
2018-08-22T05:24:43.848Z,7.28
2018-08-22T05:27:12.243Z,7.42
2018-08-22T05:29:40.557Z,7.60
2018-08-22T05:32:09.004Z,8.68
2018-08-22T05:34:37.320Z,7.40
2018-08-22T05:37:05.667Z,6.47
2018-08-22T05:39:33.973Z,8.10
2018-08-22T05:42:02.409Z,7.37
2018-08-22T05:44:30.720Z,7.90
2018-08-22T05:46:59.076Z,7.53
2018-08-22T05:49:27.393Z,6.47
2018-08-22T05:51:55.823Z,7.65
2018-08-22T05:54:24.157Z,7.05
2018-08-22T05:56:52.496Z,7.30
2018-08-22T05:59:20.806Z,7.12
2018-08-22T06:01:49.166Z,9.05
2018-08-22T06:04:17.480Z,8.25
2018-08-22T06:06:45.829Z,6.60
2018-08-22T06:09:14.209Z,7.30
2018-08-22T06:11:43.804Z,7.58
2018-08-22T06:14:12.356Z,7.70
2018-08-22T06:16:40.673Z,6.78
2018-08-22T06:19:09.024Z,6.83
2018-08-22T06:21:37.337Z,7.37
2018-08-22T06:24:05.745Z,7.40
2018-08-22T06:26:34.139Z,7.22
2018-08-22T06:29:02.532Z,6.75
2018-08-22T06:31:30.852Z,7.95
2018-08-22T06:33:59.188Z,6.85
2018-08-22T06:36:27.533Z,6.90
2018-08-22T06:38:55.878Z,6.97
2018-08-22T06:41:24.188Z,6.83
2018-08-22T06:43:52.549Z,7.65
2018-08-22T06:46:20.858Z,6.75
2018-08-22T06:48:49.200Z,7.20
2018-08-22T06:51:17.548Z,6.62
2018-08-22T06:53:45.889Z,7.37
2018-08-22T06:56:14.231Z,7.55
2018-08-22T06:58:42.571Z,7.87
2018-08-22T07:01:10.893Z,7.72
2018-08-22T07:03:39.244Z,8.10
2018-08-22T07:06:07.559Z,5.85
2018-08-22T07:08:35.907Z,7.03
2018-08-22T07:11:04.220Z,7.33
2018-08-22T07:13:32.585Z,6.75
2018-08-22T07:16:00.908Z,7.17
2018-08-22T07:18:29.284Z,6.75
2018-08-22T07:20:57.604Z,7.37
2018-08-22T07:23:25.993Z,7.37
2018-08-22T07:25:54.351Z,6.47
2018-08-22T07:28:22.699Z,6.50
2018-08-22T07:30:51.029Z,6.33
2018-08-22T07:33:19.411Z,6.35
2018-08-22T07:35:47.803Z,7.10
2018-08-22T07:38:16.124Z,7.70
2018-08-22T07:40:44.472Z,6.93
2018-08-22T07:43:12.836Z,7.07
2018-08-22T07:45:41.155Z,6.60
2018-08-22T07:48:09.497Z,7.30
2018-08-22T07:50:37.807Z,6.50
2018-08-22T07:53:06.455Z,6.70
2018-08-22T07:55:36.901Z,7.03
2018-08-22T07:58:05.303Z,7.07
2018-08-22T08:00:33.648Z,6.40
2018-08-22T08:03:02.025Z,7.33
2018-08-22T08:05:30.348Z,7.10
2018-08-22T08:07:58.984Z,7.40
2018-08-22T08:10:31.845Z,6.33
2018-08-22T08:13:00.597Z,5.77
2018-08-22T08:15:28.937Z,7.00
2018-08-22T08:17:57.804Z,6.43
2018-08-22T08:20:26.149Z,5.57
2018-08-22T08:22:54.461Z,6.03
2018-08-22T08:25:22.808Z,5.93
2018-08-22T08:27:51.196Z,6.90
2018-08-22T08:30:19.532Z,6.67
2018-08-22T08:32:47.845Z,6.27
2018-08-22T08:35:16.216Z,6.10
2018-08-22T08:37:44.560Z,6.37
2018-08-22T08:40:12.908Z,5.60
2018-08-22T08:42:41.223Z,6.07
2018-08-22T08:45:10.737Z,6.37
2018-08-22T08:47:39.065Z,5.90
2018-08-22T08:50:07.416Z,6.33
2018-08-22T08:52:35.939Z,6.80
2018-08-22T08:55:04.300Z,6.17
2018-08-22T08:57:32.900Z,6.20
2018-08-22T09:00:01.465Z,7.20
2018-08-22T09:02:29.818Z,6.00
2018-08-22T09:04:58.148Z,7.00
2018-08-22T09:07:26.460Z,6.70
2018-08-22T09:09:54.828Z,6.50
2018-08-22T09:12:23.249Z,6.20
2018-08-22T09:14:51.517Z,6.23
2018-08-22T09:17:19.887Z,6.80
2018-08-22T09:19:48.249Z,6.30
2018-08-22T09:22:16.620Z,6.27
2018-08-22T09:24:44.943Z,7.00
2018-08-22T09:27:13.253Z,7.60
2018-08-22T09:29:41.649Z,7.33
2018-08-22T09:32:09.953Z,6.93
2018-08-22T09:34:38.301Z,6.97
2018-08-22T09:37:06.605Z,7.70
2018-08-22T09:39:34.978Z,7.83
2018-08-22T09:42:03.272Z,6.73
2018-08-22T09:44:31.615Z,7.43
2018-08-22T09:46:59.928Z,7.60
2018-08-22T09:49:28.273Z,6.83
2018-08-22T09:51:56.588Z,8.03
2018-08-22T09:54:24.948Z,7.60
2018-08-22T09:56:54.176Z,8.53
2018-08-22T09:59:22.480Z,7.27
2018-08-22T10:01:50.815Z,7.60
2018-08-22T10:04:19.152Z,7.40
2018-08-22T10:06:48.755Z,7.53
2018-08-22T10:09:19.808Z,8.27
2018-08-22T10:11:48.152Z,8.07
2018-08-22T10:14:16.472Z,7.80
2018-08-22T10:16:44.816Z,7.43
2018-08-22T10:19:13.121Z,8.67
2018-08-22T10:21:41.491Z,8.47
2018-08-22T10:24:09.816Z,7.63
2018-08-22T10:26:38.228Z,7.43
2018-08-22T10:29:06.481Z,8.70
2018-08-22T10:31:34.824Z,7.90
2018-08-22T10:34:03.144Z,7.10
2018-08-22T10:36:31.496Z,7.40
2018-08-22T10:38:59.820Z,7.60
2018-08-22T10:41:28.259Z,7.40
2018-08-22T10:43:56.576Z,7.40
2018-08-22T10:46:24.924Z,7.90
2018-08-22T10:48:53.295Z,7.63
2018-08-22T10:51:21.680Z,7.53
2018-08-22T10:53:50.034Z,7.50
2018-08-22T10:56:18.360Z,7.40
2018-08-22T10:58:46.671Z,7.73
2018-08-22T11:01:15.009Z,7.43
2018-08-22T11:03:43.317Z,7.60
2018-08-22T11:06:11.660Z,7.20
2018-08-22T11:08:39.975Z,7.30
2018-08-22T11:11:08.316Z,7.60
2018-08-22T11:13:36.627Z,6.70
2018-08-22T11:16:05.070Z,7.73
2018-08-22T11:18:33.309Z,7.67
2018-08-22T11:21:12.947Z,8.10
2018-08-22T11:23:52.485Z,7.40
2018-08-22T11:26:32.178Z,7.70
2018-08-22T11:29:11.764Z,8.00
2018-08-22T11:31:51.356Z,7.60
2018-08-22T11:34:30.981Z,7.80
2018-08-22T11:37:04.122Z,7.20
2018-08-22T11:39:32.573Z,7.77
2018-08-22T11:42:01.161Z,7.70
2018-08-22T11:44:29.829Z,8.03
2018-08-22T11:46:58.204Z,7.30
2018-08-22T11:49:26.792Z,8.00
2018-08-22T11:51:55.404Z,7.20
2018-08-22T11:54:23.711Z,7.50
2018-08-22T11:56:52.148Z,7.80
2018-08-22T11:59:20.815Z,7.40
2018-08-22T12:01:49.470Z,7.77
2018-08-22T12:04:17.748Z,7.73
2018-08-22T12:06:46.089Z,8.07
2018-08-22T12:09:14.405Z,7.23
2018-08-22T12:11:43.156Z,7.20
2018-08-22T12:14:11.492Z,8.60
2018-08-22T12:16:40.436Z,7.80
2018-08-22T12:19:09.288Z,8.40
2018-08-22T12:21:37.999Z,7.30
2018-08-22T12:24:06.327Z,7.90
2018-08-22T12:26:34.870Z,7.80
2018-08-22T12:29:03.418Z,8.63
2018-08-22T12:31:31.736Z,7.20
2018-08-22T12:34:00.112Z,7.80
2018-08-22T12:36:28.433Z,7.97
2018-08-22T12:38:56.777Z,8.50
2018-08-22T12:41:25.480Z,7.70
2018-08-22T12:43:53.830Z,7.67
2018-08-22T12:46:22.145Z,8.30
2018-08-22T12:48:50.487Z,7.30
2018-08-22T12:51:18.812Z,7.20
2018-08-22T12:53:47.152Z,6.93
2018-08-22T12:56:15.465Z,8.03
2018-08-22T12:58:43.819Z,6.70
2018-08-22T13:01:12.129Z,6.20
2018-08-22T13:03:40.501Z,5.80
2018-08-22T13:06:08.809Z,6.47
2018-08-22T13:08:37.164Z,6.67
2018-08-22T13:11:05.496Z,7.50
2018-08-22T13:13:33.823Z,8.03
2018-08-22T13:16:02.132Z,8.23
2018-08-22T13:18:30.476Z,8.40
2018-08-22T13:20:58.791Z,7.33
2018-08-22T13:23:27.132Z,8.07
2018-08-22T13:25:55.449Z,7.67
2018-08-22T13:28:23.798Z,7.37
2018-08-22T13:30:52.135Z,7.80
2018-08-22T13:33:20.501Z,7.20
2018-08-22T13:35:48.823Z,7.33
2018-08-22T13:38:17.173Z,8.20
2018-08-22T13:40:45.508Z,8.90
2018-08-22T13:43:13.885Z,7.10
2018-08-22T13:45:42.212Z,8.10
2018-08-22T13:48:10.560Z,8.03
2018-08-22T13:50:38.885Z,7.90
2018-08-22T13:53:07.345Z,8.47
2018-08-22T13:55:35.663Z,8.30
2018-08-22T13:58:04.008Z,8.00
2018-08-22T14:00:32.320Z,8.00
2018-08-22T14:03:00.657Z,7.30
2018-08-22T14:05:28.978Z,7.43
2018-08-22T14:07:57.321Z,9.37
2018-08-22T14:10:25.635Z,8.17
2018-08-22T14:12:53.989Z,8.23
2018-08-22T14:15:22.317Z,8.33
2018-08-22T14:17:50.665Z,7.30
2018-08-22T14:20:19.012Z,6.90
2018-08-22T14:22:47.364Z,8.73
2018-08-22T14:25:15.672Z,7.87
2018-08-22T14:27:43.977Z,7.27
2018-08-22T14:30:12.423Z,7.43
2018-08-22T14:32:40.735Z,8.23
2018-08-22T14:35:09.077Z,7.77
2018-08-22T14:37:37.472Z,7.23
2018-08-22T14:40:05.888Z,7.40
2018-08-22T14:42:34.200Z,8.07
2018-08-22T14:45:02.622Z,7.87
2018-08-22T14:47:30.864Z,8.27
2018-08-22T14:49:59.200Z,7.80
2018-08-22T14:52:27.509Z,7.87
2018-08-22T14:54:55.946Z,7.60
2018-08-22T14:57:24.281Z,7.43
2018-08-22T14:59:52.628Z,7.47
2018-08-22T15:02:20.994Z,8.17
2018-08-22T15:04:50.856Z,8.30
2018-08-22T15:07:19.169Z,8.33
2018-08-22T15:09:47.548Z,7.53
2018-08-22T15:12:15.895Z,6.90
2018-08-22T15:14:44.196Z,5.87
2018-08-22T15:17:12.532Z,5.90
2018-08-22T15:19:40.857Z,6.00
2018-08-22T15:22:09.192Z,6.67
2018-08-22T15:24:37.504Z,6.60
2018-08-22T15:27:05.880Z,7.87
2018-08-22T15:29:34.196Z,8.40
2018-08-22T15:32:02.539Z,8.17
2018-08-22T15:34:42.081Z,7.10
2018-08-22T15:37:10.425Z,8.47
2018-08-22T15:39:38.739Z,7.40
2018-08-22T15:42:07.090Z,7.93
2018-08-22T15:44:35.512Z,8.10
2018-08-22T15:47:03.824Z,8.23
2018-08-22T15:49:32.210Z,8.77
2018-08-22T15:52:00.525Z,9.50
2018-08-22T15:54:28.881Z,9.07
2018-08-22T15:56:57.197Z,10.30
2018-08-22T15:59:25.542Z,8.43
2018-08-22T16:01:53.990Z,7.90
2018-08-22T16:04:22.337Z,8.57
2018-08-22T16:07:21.400Z,7.40
2018-08-22T16:09:49.748Z,7.70
2018-08-22T16:12:18.064Z,8.40
2018-08-22T16:14:46.412Z,9.13
2018-08-22T16:17:14.724Z,8.17
2018-08-22T16:19:43.065Z,8.33
2018-08-22T16:22:11.392Z,8.73
2018-08-22T16:24:41.434Z,9.78
2018-08-22T16:27:09.772Z,8.68
2018-08-22T16:29:38.116Z,10.40
2018-08-22T16:32:06.555Z,10.18
2018-08-22T16:34:34.896Z,9.58
2018-08-22T16:37:03.237Z,8.98
2018-08-22T16:39:40.708Z,9.50
2018-08-22T16:42:09.607Z,10.40
2018-08-22T16:44:37.955Z,9.45
2018-08-22T16:47:06.320Z,9.90
2018-08-22T16:49:34.700Z,8.95
2018-08-22T16:52:03.017Z,11.35
2018-08-22T16:54:31.375Z,10.15
2018-08-22T16:56:59.684Z,9.90
2018-08-22T16:59:28.027Z,10.30
2018-08-22T17:01:56.394Z,8.45
2018-08-22T17:04:24.711Z,9.70
2018-08-22T17:06:53.063Z,8.28
2018-08-22T17:09:21.414Z,8.58
2018-08-22T17:11:49.736Z,10.00
2018-08-22T17:14:18.074Z,9.33
2018-08-22T17:16:46.396Z,9.10
2018-08-22T17:19:14.740Z,10.23
2018-08-22T17:21:43.100Z,9.97
2018-08-22T17:24:11.448Z,8.03
2018-08-22T17:26:39.760Z,10.30
2018-08-22T17:29:08.109Z,8.53
2018-08-22T17:31:36.462Z,10.00
2018-08-22T17:34:04.897Z,10.10
2018-08-22T17:36:33.213Z,9.80
2018-08-22T17:39:02.269Z,9.10
2018-08-22T17:41:30.775Z,9.90
2018-08-22T17:44:09.900Z,10.20
2018-08-22T17:46:40.452Z,10.13
2018-08-22T17:49:08.795Z,11.50
2018-08-22T17:52:04.248Z,10.43
2018-08-22T17:54:32.636Z,10.97
2018-08-22T17:57:13.084Z,11.03
2018-08-22T17:59:42.433Z,10.60
2018-08-22T18:02:10.773Z,9.47
2018-08-22T18:05:11.988Z,9.50
2018-08-22T18:07:40.328Z,8.80
2018-08-22T18:10:08.656Z,9.83
2018-08-22T18:12:37.004Z,8.30
2018-08-22T18:15:05.365Z,9.50
2018-08-22T18:17:33.739Z,11.00
2018-08-22T18:20:02.086Z,9.97
2018-08-22T18:22:35.352Z,8.63
2018-08-22T18:25:03.711Z,9.73
2018-08-22T18:27:32.196Z,8.60
2018-08-22T18:30:00.393Z,9.13
2018-08-22T18:32:28.745Z,9.00
2018-08-22T18:35:06.639Z,9.63
2018-08-22T18:37:35.000Z,10.30
2018-08-22T18:40:19.145Z,8.83
2018-08-22T18:42:48.575Z,9.10
2018-08-22T18:45:17.129Z,8.53
2018-08-22T18:47:45.476Z,9.50
2018-08-22T18:50:13.801Z,11.18
2018-08-22T18:52:42.224Z,10.68
2018-08-22T18:55:10.548Z,11.50
2018-08-22T18:57:38.883Z,10.90
2018-08-22T19:00:08.566Z,11.08
2018-08-22T19:02:36.883Z,11.17
2018-08-22T19:05:17.713Z,10.55
2018-08-22T19:07:58.304Z,10.32
2018-08-22T19:10:29.402Z,11.08
2018-08-22T19:13:01.812Z,11.85
2018-08-22T19:15:30.133Z,9.88
2018-08-22T19:17:58.504Z,10.70
2018-08-22T19:20:26.859Z,9.93
2018-08-22T19:22:55.219Z,10.58
2018-08-22T19:25:23.661Z,9.95
2018-08-22T19:27:51.908Z,9.95
2018-08-22T19:30:20.259Z,9.65
2018-08-22T19:32:48.581Z,10.82
2018-08-22T19:35:16.928Z,11.25
2018-08-22T19:37:49.480Z,11.30
2018-08-22T19:40:17.835Z,12.15
2018-08-22T19:42:46.148Z,10.90
2018-08-22T19:45:14.504Z,9.73
2018-08-22T19:47:42.822Z,10.45
2018-08-22T19:50:11.167Z,9.83
2018-08-22T19:52:39.488Z,10.95
2018-08-22T19:55:07.945Z,10.35
2018-08-22T19:57:39.664Z,11.15
2018-08-22T20:00:09.599Z,10.03
2018-08-22T20:02:38.173Z,9.83
2018-08-22T20:05:07.768Z,9.48
2018-08-22T20:07:36.268Z,11.43
2018-08-22T20:10:04.696Z,11.53
2018-08-22T20:12:43.695Z,10.78
2018-08-22T20:15:12.053Z,11.12
2018-08-22T20:17:40.399Z,10.13
2018-08-22T20:20:10.168Z,10.88
2018-08-22T20:22:41.900Z,10.28
2018-08-22T20:25:10.708Z,10.15
2018-08-22T20:27:39.371Z,10.15
2018-08-22T20:30:15.896Z,11.33
2018-08-22T20:32:58.655Z,9.75
2018-08-22T20:35:27.800Z,10.23
2018-08-22T20:37:56.483Z,11.00
2018-08-22T20:40:24.989Z,10.28
2018-08-22T20:42:53.472Z,11.80
2018-08-22T20:45:26.967Z,10.98
2018-08-22T20:48:11.028Z,11.28
2018-08-22T20:50:40.707Z,10.85
2018-08-22T20:53:10.384Z,10.95
2018-08-22T20:55:38.788Z,10.75
2018-08-22T20:58:07.137Z,10.40
2018-08-22T21:00:36.780Z,10.28
2018-08-22T21:03:05.194Z,11.05
2018-08-22T21:05:33.489Z,9.65
2018-08-22T21:08:01.810Z,9.95
2018-08-22T21:10:30.156Z,11.10
2018-08-22T21:12:58.498Z,9.00
2018-08-22T21:15:26.848Z,9.88
2018-08-22T21:17:55.163Z,10.95
2018-08-22T21:20:24.441Z,10.80
2018-08-22T21:22:53.625Z,11.43
2018-08-22T21:25:22.005Z,9.63
2018-08-22T21:27:50.980Z,9.23
2018-08-22T21:30:19.365Z,9.33
2018-08-22T21:32:48.545Z,8.93
2018-08-22T21:35:20.057Z,11.53
2018-08-22T21:37:48.382Z,9.98
2018-08-22T21:40:16.729Z,11.20
2018-08-22T21:42:45.045Z,10.85
2018-08-22T21:45:13.388Z,10.48
2018-08-22T21:47:41.714Z,10.70
2018-08-22T21:50:10.073Z,10.45
2018-08-22T21:53:00.473Z,10.35
2018-08-22T21:55:36.052Z,10.43
2018-08-22T21:58:05.020Z,9.73
2018-08-22T22:00:33.399Z,10.38
2018-08-22T22:03:01.712Z,11.57
2018-08-22T22:05:41.369Z,11.35
2018-08-22T22:08:09.697Z,9.70
2018-08-22T22:10:38.029Z,9.88
2018-08-22T22:13:06.708Z,9.90
2018-08-22T22:15:40.521Z,11.38
2018-08-22T22:18:08.901Z,10.75
2018-08-22T22:20:37.214Z,11.73
2018-08-22T22:23:05.635Z,10.60
2018-08-22T22:25:33.949Z,10.90
2018-08-22T22:28:02.377Z,11.10
2018-08-22T22:30:30.693Z,9.85
2018-08-22T22:33:00.355Z,11.38
2018-08-22T22:35:34.001Z,8.70
2018-08-22T22:38:08.034Z,10.55
2018-08-22T22:40:36.696Z,11.20
2018-08-22T22:43:07.774Z,10.48
2018-08-22T22:45:36.329Z,11.68
2018-08-22T22:48:04.812Z,12.60
2018-08-22T22:50:33.157Z,12.40
2018-08-22T22:53:01.488Z,11.85
2018-08-22T22:55:29.948Z,11.05
2018-08-22T22:57:58.345Z,11.73
2018-08-22T23:00:29.055Z,11.03
2018-08-22T23:03:02.869Z,11.50
2018-08-22T23:05:31.748Z,11.55
2018-08-22T23:08:01.661Z,11.00
2018-08-22T23:10:30.044Z,11.97
2018-08-22T23:12:58.429Z,12.63
2018-08-22T23:15:27.931Z,11.83
2018-08-22T23:18:00.480Z,10.90
2018-08-22T23:20:36.389Z,10.00
2018-08-22T23:23:10.191Z,9.95
2018-08-22T23:25:38.569Z,10.15
2018-08-22T23:28:07.008Z,10.48
2018-08-22T23:30:37.175Z,9.85
2018-08-22T23:33:06.322Z,11.20
2018-08-22T23:35:35.752Z,9.75
2018-08-22T23:38:06.188Z,9.55
2018-08-22T23:40:35.491Z,9.43
2018-08-22T23:43:03.820Z,11.40
2018-08-22T23:45:35.768Z,10.15
2018-08-22T23:48:04.596Z,10.43
2018-08-22T23:50:56.168Z,12.23
2018-08-22T23:53:27.449Z,11.97
2018-08-22T23:56:10.107Z,11.70
2018-08-22T23:58:38.968Z,11.08
